Time;durP1;ratioP1;P1;durP2;ratioP2;P2;SDS_P1;SDS_P2;PMS_P1;PMS_P2;Temp;Humidity;BMP_temperature;BMP_pressure;BME280_temperature;BME280_humidity;BME280_pressure;Samples;Min_cycle;Max_cycle;Signal;HPM_P1;HPM_P2
2021/09/18 00:00:00;;;;;;;2.27;1.20;;;14.40;99.90;;;;;;5056549;28;20741;-72
2021/09/18 00:02:27;;;;;;;1.23;1.03;;;14.40;99.90;;;;;;5056388;28;20462;-71
2021/09/18 00:04:56;;;;;;;3.73;1.13;;;14.40;99.90;;;;;;5056303;28;20485;-71
2021/09/18 00:07:23;;;;;;;1.20;0.90;;;14.40;99.90;;;;;;5055963;28;20462;-71
2021/09/18 00:09:50;;;;;;;1.30;0.97;;;14.40;99.90;;;;;;5055862;28;20469;-70
2021/09/18 00:12:20;;;;;;;2.23;0.93;;;14.40;99.90;;;;;;5056257;28;20469;-72
2021/09/18 00:14:48;;;;;;;1.80;1.10;;;14.40;99.90;;;;;;5055836;28;20466;-72
2021/09/18 00:17:14;;;;;;;2.27;1.20;;;14.40;99.90;;;;;;5056931;28;20742;-71
2021/09/18 00:19:41;;;;;;;1.77;1.23;;;14.40;99.90;;;;;;5056477;28;20447;-72
2021/09/18 00:22:08;;;;;;;1.40;1.30;;;14.40;99.90;;;;;;5057438;28;20929;-71
2021/09/18 00:24:34;;;;;;;2.03;1.23;;;14.40;99.90;;;;;;5057327;28;20490;-71
2021/09/18 00:27:04;;;;;;;1.77;1.30;;;14.30;99.90;;;;;;5057642;28;20477;-72
2021/09/18 00:29:31;;;;;;;1.27;1.07;;;14.30;99.90;;;;;;5057468;28;20516;-71
2021/09/18 00:31:59;;;;;;;1.63;1.20;;;14.30;99.90;;;;;;5056724;28;20473;-72
2021/09/18 00:34:25;;;;;;;1.70;1.17;;;14.30;99.90;;;;;;5056436;28;20509;-70
2021/09/18 00:36:52;;;;;;;1.87;1.53;;;14.30;99.90;;;;;;5056923;28;20452;-72
2021/09/18 00:39:19;;;;;;;1.80;1.20;;;14.30;99.90;;;;;;5057048;28;20458;-72
2021/09/18 00:41:45;;;;;;;1.50;1.20;;;14.30;99.90;;;;;;5055500;28;20484;-71
2021/09/18 00:44:17;;;;;;;2.07;1.10;;;14.30;99.90;;;;;;5055530;28;20540;-71
2021/09/18 00:46:44;;;;;;;4.80;1.53;;;14.40;99.90;;;;;;5055473;28;20551;-71
2021/09/18 00:49:13;;;;;;;1.67;1.20;;;14.40;99.90;;;;;;5055624;28;20486;-71
2021/09/18 00:51:43;;;;;;;2.67;1.30;;;14.40;99.90;;;;;;5054934;28;20456;-71
2021/09/18 00:54:12;;;;;;;2.30;1.80;;;14.40;99.90;;;;;;5055503;28;20458;-72
2021/09/18 00:56:38;;;;;;;1.60;1.40;;;14.40;99.90;;;;;;5055236;28;20577;-70
2021/09/18 00:59:07;;;;;;;1.63;1.33;;;14.40;99.90;;;;;;5054954;28;20942;-72
2021/09/18 01:01:34;;;;;;;2.07;1.00;;;14.40;99.90;;;;;;5054584;28;20968;-71
2021/09/18 01:04:01;;;;;;;1.40;1.30;;;14.40;99.90;;;;;;5054938;28;20805;-72
2021/09/18 01:06:32;;;;;;;2.97;1.43;;;14.30;99.90;;;;;;5054951;28;20516;-72
2021/09/18 01:09:00;;;;;;;2.30;1.33;;;14.30;99.90;;;;;;5055136;28;20452;-71
2021/09/18 01:11:27;;;;;;;2.20;1.30;;;14.30;99.90;;;;;;5054882;28;20805;-72
2021/09/18 01:13:54;;;;;;;1.80;1.30;;;14.30;99.90;;;;;;5054906;28;20458;-71
2021/09/18 01:16:21;;;;;;;1.70;1.40;;;14.40;99.90;;;;;;5054407;28;20490;-71
2021/09/18 01:18:48;;;;;;;1.50;1.40;;;14.30;99.90;;;;;;5054960;28;20570;-71
2021/09/18 01:21:16;;;;;;;1.80;1.20;;;14.20;99.90;;;;;;5054782;28;20455;-71
2021/09/18 01:23:44;;;;;;;4.90;1.47;;;14.20;99.90;;;;;;5054944;28;20457;-71
2021/09/18 01:26:13;;;;;;;1.90;1.70;;;14.10;99.90;;;;;;5054469;28;20916;-71
2021/09/18 01:28:41;;;;;;;2.30;1.53;;;14.10;99.90;;;;;;5054530;28;20467;-71
2021/09/18 01:31:08;;;;;;;2.47;1.80;;;14.00;99.90;;;;;;5054523;28;20458;-72
2021/09/18 01:33:35;;;;;;;1.40;1.03;;;14.10;99.90;;;;;;5054685;28;20751;-71
2021/09/18 01:36:02;;;;;;;1.50;1.23;;;14.10;99.90;;;;;;5054578;28;20452;-71
2021/09/18 01:38:28;;;;;;;2.43;1.40;;;14.00;99.90;;;;;;5054321;28;20466;-71
2021/09/18 01:40:56;;;;;;;3.00;1.50;;;14.10;99.90;;;;;;5054384;28;20458;-71
2021/09/18 01:43:24;;;;;;;2.03;1.50;;;14.10;99.90;;;;;;5053846;28;20517;-71
2021/09/18 01:45:50;;;;;;;1.90;1.40;;;14.00;99.90;;;;;;5055053;28;20524;-71
2021/09/18 01:48:20;;;;;;;2.70;1.30;;;14.00;99.90;;;;;;5054057;28;20527;-71
2021/09/18 01:50:52;;;;;;;2.63;1.60;;;14.10;99.90;;;;;;5054479;28;20779;-71
2021/09/18 01:53:20;;;;;;;1.63;1.20;;;14.10;99.90;;;;;;5054216;28;20441;-71
2021/09/18 01:55:48;;;;;;;3.77;1.40;;;14.00;99.90;;;;;;5054261;28;20484;-71
2021/09/18 01:58:16;;;;;;;1.43;1.27;;;14.10;99.90;;;;;;5053854;28;20916;-71
2021/09/18 02:00:45;;;;;;;2.17;1.40;;;14.10;99.90;;;;;;5054296;28;20455;-74
2021/09/18 02:03:11;;;;;;;1.60;1.10;;;14.10;99.90;;;;;;5054496;28;20576;-71
2021/09/18 02:05:38;;;;;;;1.70;1.60;;;14.10;99.90;;;;;;5054156;28;20835;-71
2021/09/18 02:08:05;;;;;;;1.43;1.33;;;14.10;99.90;;;;;;5053817;28;20925;-71
2021/09/18 02:10:33;;;;;;;2.70;1.47;;;14.10;99.90;;;;;;5054496;28;20466;-71
2021/09/18 02:13:01;;;;;;;5.53;1.60;;;14.10;99.90;;;;;;5054493;28;20541;-71
2021/09/18 02:15:29;;;;;;;4.30;1.30;;;14.00;99.90;;;;;;5053699;28;20482;-71
2021/09/18 02:17:56;;;;;;;2.20;1.67;;;14.00;99.90;;;;;;5054261;28;20454;-70
2021/09/18 02:20:27;;;;;;;2.90;1.67;;;14.00;99.90;;;;;;5054065;28;20455;-71
2021/09/18 02:22:54;;;;;;;2.23;1.57;;;14.00;99.90;;;;;;5054442;28;20440;-72
2021/09/18 02:25:22;;;;;;;1.40;1.30;;;14.00;99.90;;;;;;5054434;28;20486;-72
2021/09/18 02:27:49;;;;;;;2.23;2.03;;;14.10;99.90;;;;;;5054466;28;20459;-73
2021/09/18 02:30:18;;;;;;;4.63;1.77;;;14.00;99.90;;;;;;5054423;28;20570;-70
2021/09/18 02:32:46;;;;;;;1.57;1.47;;;14.00;99.90;;;;;;5053915;28;20467;-70
2021/09/18 02:35:15;;;;;;;2.10;1.77;;;13.90;99.90;;;;;;5054135;28;20459;-70
2021/09/18 02:37:43;;;;;;;1.30;1.20;;;13.90;99.90;;;;;;5053609;28;20471;-70
2021/09/18 02:40:12;;;;;;;1.80;1.60;;;13.90;99.90;;;;;;5054065;28;20456;-70
2021/09/18 02:42:40;;;;;;;2.50;1.30;;;13.90;99.90;;;;;;5053738;28;20473;-70
2021/09/18 02:45:09;;;;;;;1.80;1.10;;;13.90;99.90;;;;;;5054165;28;20483;-70
2021/09/18 02:47:36;;;;;;;2.37;1.30;;;13.90;99.90;;;;;;5053955;28;20464;-71
2021/09/18 02:50:09;;;;;;;2.10;1.43;;;13.90;99.90;;;;;;5054069;28;20803;-71
2021/09/18 02:52:39;;;;;;;1.67;1.57;;;14.00;99.90;;;;;;5053848;28;20466;-71
2021/09/18 02:55:07;;;;;;;2.33;1.50;;;13.90;99.90;;;;;;5053932;28;20790;-71
2021/09/18 02:57:34;;;;;;;1.90;1.53;;;13.90;99.90;;;;;;5057666;28;20480;-71
2021/09/18 03:00:01;;;;;;;2.40;1.60;;;13.90;99.90;;;;;;5057649;28;20463;-71
2021/09/18 03:02:27;;;;;;;2.53;1.37;;;13.90;99.90;;;;;;5057189;28;20471;-71
2021/09/18 03:04:54;;;;;;;3.40;1.53;;;13.90;99.90;;;;;;5056933;28;20481;-71
2021/09/18 03:07:25;;;;;;;4.00;2.10;;;13.90;99.90;;;;;;5057248;28;20464;-71
2021/09/18 03:09:52;;;;;;;2.40;1.50;;;13.90;99.90;;;;;;5057557;28;20453;-71
2021/09/18 03:12:18;;;;;;;1.50;1.37;;;13.90;99.90;;;;;;5057117;28;20466;-70
2021/09/18 03:14:45;;;;;;;2.57;1.70;;;13.90;99.90;;;;;;5056811;28;20915;-71
2021/09/18 03:17:14;;;;;;;1.97;1.60;;;13.90;99.90;;;;;;5056783;28;20962;-71
2021/09/18 03:19:41;;;;;;;1.93;1.60;;;13.90;99.90;;;;;;5056764;28;20466;-71
2021/09/18 03:22:07;;;;;;;1.50;1.30;;;13.90;99.90;;;;;;5057138;28;20519;-71
2021/09/18 03:24:35;;;;;;;2.73;1.27;;;13.90;99.90;;;;;;5057062;28;20466;-71
2021/09/18 03:27:02;;;;;;;1.93;1.73;;;13.90;99.90;;;;;;5056710;28;20474;-71
2021/09/18 03:29:29;;;;;;;1.60;1.50;;;13.90;99.90;;;;;;5056830;28;20466;-71
2021/09/18 03:31:56;;;;;;;1.70;1.40;;;13.90;99.90;;;;;;5056818;28;20481;-71
2021/09/18 03:34:23;;;;;;;2.27;2.07;;;13.90;99.90;;;;;;5056872;28;20551;-70
2021/09/18 03:36:49;;;;;;;2.30;1.60;;;13.90;99.90;;;;;;5056700;28;20460;-71
2021/09/18 03:39:16;;;;;;;1.70;1.60;;;13.80;99.90;;;;;;5056476;28;20470;-72
2021/09/18 03:41:44;;;;;;;2.20;1.70;;;13.80;99.90;;;;;;5056776;28;20466;-69
2021/09/18 03:44:11;;;;;;;2.50;1.73;;;13.80;99.90;;;;;;5056772;28;20466;-70
2021/09/18 03:46:37;;;;;;;2.73;1.83;;;13.80;99.90;;;;;;5056038;28;20484;-70
2021/09/18 03:49:07;;;;;;;2.03;1.80;;;13.80;99.90;;;;;;5056445;28;20472;-71
2021/09/18 03:51:36;;;;;;;2.73;2.07;;;13.80;99.90;;;;;;5056272;28;20565;-70
2021/09/18 03:54:03;;;;;;;3.00;1.60;;;13.90;99.90;;;;;;5056209;28;20927;-71
2021/09/18 03:56:30;;;;;;;1.60;1.50;;;13.90;99.90;;;;;;5056784;28;20453;-70
2021/09/18 03:58:58;;;;;;;4.80;1.97;;;14.00;99.90;;;;;;5056285;28;20470;-71
2021/09/18 04:01:24;;;;;;;1.60;1.50;;;14.00;99.90;;;;;;5056097;28;20927;-70
2021/09/18 04:03:51;;;;;;;2.33;1.97;;;14.00;99.90;;;;;;5056444;28;20459;-70
2021/09/18 04:06:18;;;;;;;2.00;1.60;;;13.90;99.90;;;;;;5055950;28;20479;-71
2021/09/18 04:08:45;;;;;;;1.70;1.60;;;13.90;99.90;;;;;;5056371;28;20518;-70
2021/09/18 04:11:11;;;;;;;3.03;2.10;;;14.00;99.90;;;;;;5056359;28;20463;-70
2021/09/18 04:13:38;;;;;;;2.00;1.73;;;14.00;99.90;;;;;;5056362;28;20455;-71
2021/09/18 04:16:06;;;;;;;5.23;2.10;;;14.00;99.90;;;;;;5055459;28;20494;-71
2021/09/18 04:18:33;;;;;;;3.57;2.40;;;13.90;99.90;;;;;;5055861;28;20462;-71
2021/09/18 04:21:00;;;;;;;3.13;2.50;;;13.90;99.90;;;;;;5056369;28;20481;-72
2021/09/18 04:23:26;;;;;;;3.20;2.40;;;14.00;99.90;;;;;;5056764;28;20900;-71
2021/09/18 04:25:53;;;;;;;3.63;2.70;;;14.00;99.90;;;;;;5056460;28;20479;-71
2021/09/18 04:28:20;;;;;;;4.90;3.90;;;14.00;99.90;;;;;;5057366;28;20472;-71
2021/09/18 04:30:46;;;;;;;4.43;3.70;;;14.00;99.90;;;;;;5056763;28;20473;-71
2021/09/18 04:33:14;;;;;;;4.33;3.43;;;13.90;99.90;;;;;;5057620;28;20938;-71
2021/09/18 04:35:42;;;;;;;4.77;3.63;;;13.80;99.90;;;;;;5056682;28;20494;-71
2021/09/18 04:38:09;;;;;;;5.03;3.50;;;13.80;99.90;;;;;;5056345;28;20549;-71
2021/09/18 04:40:35;;;;;;;4.03;3.60;;;13.70;99.90;;;;;;5055644;28;20456;-70
2021/09/18 04:43:05;;;;;;;4.07;2.90;;;13.70;99.90;;;;;;5055628;28;20564;-70
2021/09/18 04:45:34;;;;;;;4.00;3.60;;;13.80;99.90;;;;;;5055029;28;20943;-70
2021/09/18 04:48:01;;;;;;;4.10;3.13;;;13.80;99.90;;;;;;5055365;28;20460;-70
2021/09/18 04:50:29;;;;;;;4.23;3.47;;;13.80;99.90;;;;;;5055295;28;20457;-71
2021/09/18 04:52:59;;;;;;;5.50;3.77;;;13.80;99.90;;;;;;5055224;28;20467;-71
2021/09/18 04:55:26;;;;;;;3.63;3.30;;;13.80;99.90;;;;;;5055146;28;20464;-71
2021/09/18 04:57:52;;;;;;;6.83;4.13;;;13.90;99.90;;;;;;5055091;28;20937;-70
2021/09/18 05:00:20;;;;;;;4.47;3.67;;;13.90;99.90;;;;;;5055354;28;20783;-71
2021/09/18 05:02:46;;;;;;;5.67;4.30;;;13.90;99.90;;;;;;5054824;28;20554;-70
2021/09/18 05:05:13;;;;;;;6.17;3.67;;;13.90;99.90;;;;;;5055050;28;20544;-70
2021/09/18 05:07:41;;;;;;;4.03;3.70;;;13.90;99.90;;;;;;5054971;28;20458;-71
2021/09/18 05:10:08;;;;;;;6.50;4.03;;;13.90;99.90;;;;;;5055200;28;20457;-71
2021/09/18 05:12:35;;;;;;;4.03;3.73;;;13.90;99.90;;;;;;5055252;28;20586;-71
2021/09/18 05:15:02;;;;;;;5.00;4.50;;;13.80;99.90;;;;;;5054779;28;20545;-71
2021/09/18 05:17:29;;;;;;;6.90;4.90;;;13.70;99.90;;;;;;5054268;28;20466;-70
2021/09/18 05:19:55;;;;;;;6.67;4.77;;;13.70;99.90;;;;;;5054645;28;20496;-70
2021/09/18 05:22:25;;;;;;;6.30;4.50;;;13.70;99.90;;;;;;5054945;28;20541;-71
2021/09/18 05:24:53;;;;;;;5.07;4.57;;;13.70;99.90;;;;;;5054548;28;20920;-71
2021/09/18 05:27:20;;;;;;;5.50;4.53;;;13.60;99.90;;;;;;5054403;28;20491;-71
2021/09/18 05:29:47;;;;;;;4.80;4.40;;;13.60;99.90;;;;;;5054799;28;20479;-71
2021/09/18 05:32:14;;;;;;;5.70;4.43;;;13.70;99.90;;;;;;5054764;28;20548;-71
2021/09/18 05:34:41;;;;;;;5.67;4.30;;;13.70;99.90;;;;;;5054727;28;20839;-71
2021/09/18 05:37:08;;;;;;;6.13;4.80;;;13.70;99.90;;;;;;5054498;28;20455;-71
2021/09/18 05:39:35;;;;;;;4.90;4.50;;;13.60;99.90;;;;;;5054687;28;20457;-71
2021/09/18 05:42:03;;;;;;;5.10;4.70;;;13.70;99.90;;;;;;5054624;28;20483;-71
2021/09/18 05:44:30;;;;;;;4.67;4.17;;;13.80;99.90;;;;;;5054475;28;20465;-71
2021/09/18 05:46:57;;;;;;;4.67;3.77;;;13.80;99.90;;;;;;5054207;28;20475;-70
2021/09/18 05:49:23;;;;;;;5.27;4.27;;;13.80;99.90;;;;;;5054670;28;20495;-71
2021/09/18 05:51:51;;;;;;;5.47;4.97;;;13.80;99.90;;;;;;5054789;28;20456;-71
2021/09/18 05:54:18;;;;;;;5.20;4.70;;;13.80;99.90;;;;;;5054536;28;20459;-71
2021/09/18 05:56:44;;;;;;;5.70;4.53;;;13.80;99.90;;;;;;5054661;28;20520;-71
2021/09/18 05:59:12;;;;;;;4.60;3.77;;;13.80;99.90;;;;;;5054412;28;20923;-71
2021/09/18 06:01:39;;;;;;;5.30;4.80;;;13.80;99.90;;;;;;5054372;28;20461;-71
2021/09/18 06:04:06;;;;;;;5.77;4.53;;;13.80;99.90;;;;;;5054491;28;20939;-71
2021/09/18 06:06:32;;;;;;;4.93;4.43;;;13.80;99.90;;;;;;5053983;28;20555;-71
2021/09/18 06:08:59;;;;;;;5.10;4.60;;;13.70;99.90;;;;;;5054114;28;20917;-71
2021/09/18 06:11:26;;;;;;;4.97;3.77;;;13.70;99.90;;;;;;5054679;28;20493;-71
2021/09/18 06:13:53;;;;;;;5.13;4.70;;;13.70;99.90;;;;;;5054218;28;20471;-71
2021/09/18 06:16:22;;;;;;;4.90;4.10;;;13.80;99.90;;;;;;5053957;28;20493;-71
2021/09/18 06:18:49;;;;;;;8.80;6.43;;;13.80;99.90;;;;;;5054194;28;20528;-71
2021/09/18 06:21:16;;;;;;;5.53;4.43;;;13.90;99.90;;;;;;5053960;28;20456;-71
2021/09/18 06:23:42;;;;;;;4.73;3.77;;;13.90;99.90;;;;;;5054079;28;20472;-72
2021/09/18 06:26:09;;;;;;;6.10;3.80;;;14.00;99.90;;;;;;5053905;28;20484;-71
2021/09/18 06:28:36;;;;;;;4.70;4.30;;;14.10;99.90;;;;;;5054099;28;20908;-71
2021/09/18 06:31:03;;;;;;;5.50;3.87;;;14.10;99.90;;;;;;5057263;28;20518;-71
2021/09/18 06:33:31;;;;;;;4.37;3.97;;;14.20;99.90;;;;;;5057544;28;20468;-73
2021/09/18 06:36:03;;;;;;;4.00;3.70;;;14.20;99.90;;;;;;5057834;28;20481;-71
2021/09/18 06:38:30;;;;;;;5.10;4.60;;;14.20;99.90;;;;;;5057703;28;20455;-72
2021/09/18 06:40:58;;;;;;;4.90;4.33;;;14.20;99.90;;;;;;5057669;28;20485;-70
2021/09/18 06:43:28;;;;;;;4.87;4.40;;;14.30;99.90;;;;;;5057647;28;20520;-71
2021/09/18 06:45:55;;;;;;;6.73;6.13;;;14.30;99.90;;;;;;5057264;28;20482;-71
2021/09/18 06:48:21;;;;;;;5.63;5.00;;;14.30;99.90;;;;;;5057617;28;20465;-71
2021/09/18 06:50:49;;;;;;;8.13;5.10;;;14.30;99.90;;;;;;5057558;28;20458;-71
2021/09/18 06:53:16;;;;;;;7.13;5.30;;;14.40;99.90;;;;;;5057254;28;20466;-71
2021/09/18 06:55:43;;;;;;;6.03;5.43;;;14.40;99.90;;;;;;5057600;28;20511;-71
2021/09/18 06:58:09;;;;;;;5.90;5.30;;;14.50;99.90;;;;;;5057472;28;20473;-71
2021/09/18 07:00:36;;;;;;;6.80;5.97;;;14.60;99.90;;;;;;5057133;28;20463;-71
2021/09/18 07:03:04;;;;;;;8.00;5.83;;;14.70;99.90;;;;;;5057242;28;20794;-71
2021/09/18 07:05:31;;;;;;;10.40;6.80;;;14.70;99.90;;;;;;5057453;28;20583;-71
2021/09/18 07:07:59;;;;;;;9.07;6.97;;;14.80;99.90;;;;;;5057547;28;20459;-72
2021/09/18 07:10:26;;;;;;;8.10;6.00;;;14.80;99.90;;;;;;5057314;28;20533;-72
2021/09/18 07:12:53;;;;;;;9.40;8.20;;;14.90;99.90;;;;;;5057650;28;20465;-72
2021/09/18 07:15:20;;;;;;;11.90;7.17;;;14.90;99.90;;;;;;5057410;28;20611;-70
2021/09/18 07:17:47;;;;;;;8.63;6.73;;;15.00;99.90;;;;;;5057491;28;20452;-71
2021/09/18 07:20:14;;;;;;;10.57;7.10;;;15.00;99.90;;;;;;5057560;28;20490;-71
2021/09/18 07:22:41;;;;;;;11.50;8.13;;;15.10;99.90;;;;;;5057384;28;20455;-71
2021/09/18 07:25:11;;;;;;;7.50;6.33;;;15.20;99.90;;;;;;5057632;28;20493;-71
2021/09/18 07:27:40;;;;;;;7.63;6.83;;;15.20;99.90;;;;;;5057085;28;20487;-71
2021/09/18 07:30:08;;;;;;;9.70;7.17;;;15.30;99.90;;;;;;5057008;28;20472;-71
2021/09/18 07:32:35;;;;;;;8.17;7.37;;;15.30;99.90;;;;;;5057429;28;20455;-71
2021/09/18 07:35:06;;;;;;;9.17;8.00;;;15.40;99.90;;;;;;5056629;28;20481;-71
2021/09/18 07:37:34;;;;;;;8.23;7.40;;;15.50;99.90;;;;;;5056943;28;20436;-71
2021/09/18 07:40:02;;;;;;;8.40;7.03;;;15.60;99.90;;;;;;5056757;28;20470;-71
2021/09/18 07:42:30;;;;;;;9.10;7.00;;;15.70;99.90;;;;;;5055702;28;20466;-71
2021/09/18 07:44:56;;;;;;;7.27;6.37;;;15.80;99.90;;;;;;5056438;28;20562;-71
2021/09/18 07:47:25;;;;;;;6.43;5.83;;;16.00;99.90;;;;;;5056181;28;20975;-71
2021/09/18 07:49:55;;;;;;;4.70;4.30;;;16.30;99.90;;;;;;5055776;28;20464;-71
2021/09/18 07:52:22;;;;;;;4.80;4.40;;;16.50;99.90;;;;;;5056176;28;20455;-70
2021/09/18 07:54:48;;;;;;;5.10;3.47;;;16.70;99.90;;;;;;5056340;28;20467;-70
2021/09/18 07:57:15;;;;;;;3.87;3.57;;;16.80;99.90;;;;;;5056634;28;20912;-71
2021/09/18 07:59:43;;;;;;;3.20;2.83;;;16.90;99.90;;;;;;5055964;28;20474;-71
2021/09/18 08:02:10;;;;;;;4.63;3.13;;;17.00;99.90;;;;;;5055618;28;20455;-70
2021/09/18 08:04:37;;;;;;;3.60;2.80;;;17.10;99.90;;;;;;5055542;28;20927;-70
2021/09/18 08:07:04;;;;;;;5.60;3.27;;;17.10;99.90;;;;;;5055831;28;20488;-71
2021/09/18 08:09:33;;;;;;;2.43;2.23;;;17.20;99.90;;;;;;5055763;28;20554;-71
2021/09/18 08:11:59;;;;;;;2.70;2.30;;;17.30;99.90;;;;;;5055391;28;20456;-71
2021/09/18 08:14:27;;;;;;;2.30;2.10;;;17.30;99.90;;;;;;5055867;28;20782;-71
2021/09/18 08:16:56;;;;;;;2.27;2.07;;;17.40;99.90;;;;;;5055930;28;20444;-71
2021/09/18 08:19:23;;;;;;;2.73;2.00;;;17.50;99.90;;;;;;5055405;28;20539;-71
2021/09/18 08:21:50;;;;;;;2.83;1.60;;;17.60;99.90;;;;;;5055594;28;20451;-71
2021/09/18 08:24:17;;;;;;;3.00;2.10;;;17.80;99.90;;;;;;5055803;28;20487;-71
2021/09/18 08:26:44;;;;;;;1.73;1.63;;;17.90;99.90;;;;;;5055845;28;20519;-71
2021/09/18 08:29:11;;;;;;;2.37;1.60;;;18.10;99.90;;;;;;5055396;28;20467;-71
2021/09/18 08:31:38;;;;;;;1.73;1.40;;;18.10;99.90;;;;;;5055301;28;20529;-71
2021/09/18 08:34:06;;;;;;;2.23;1.33;;;18.20;99.90;;;;;;5055543;28;20483;-71
2021/09/18 08:36:33;;;;;;;2.17;1.10;;;18.20;99.90;;;;;;5055196;28;20731;-71
2021/09/18 08:39:00;;;;;;;2.20;1.00;;;18.20;99.90;;;;;;5055090;28;20534;-71
2021/09/18 08:41:27;;;;;;;2.20;1.00;;;18.20;99.90;;;;;;5055758;28;20463;-71
2021/09/18 08:43:53;;;;;;;1.43;0.93;;;18.20;99.90;;;;;;5055442;28;20470;-71
2021/09/18 08:46:20;;;;;;;2.63;1.53;;;18.20;99.90;;;;;;5055053;28;20463;-71
2021/09/18 08:48:47;;;;;;;1.53;1.10;;;18.30;99.90;;;;;;5055073;28;20456;-71
2021/09/18 08:51:15;;;;;;;2.30;1.00;;;18.40;99.90;;;;;;5055341;28;20459;-71
2021/09/18 08:53:42;;;;;;;2.03;1.00;;;18.40;99.90;;;;;;5054060;28;20458;-71
2021/09/18 08:56:09;;;;;;;3.40;1.00;;;18.40;99.90;;;;;;5054876;28;20939;-71
2021/09/18 08:58:38;;;;;;;1.97;1.13;;;18.40;99.90;;;;;;5054833;28;20457;-71
2021/09/18 09:01:05;;;;;;;1.30;0.90;;;18.40;99.90;;;;;;5054916;28;20463;-71
2021/09/18 09:03:35;;;;;;;1.30;1.07;;;18.40;99.90;;;;;;5054506;28;20456;-71
2021/09/18 09:06:05;;;;;;;1.10;0.83;;;18.50;99.90;;;;;;5055183;28;20460;-72
2021/09/18 09:08:37;;;;;;;1.20;0.90;;;18.50;99.90;;;;;;5054812;28;20476;-70
2021/09/18 09:11:21;;;;;;;1.20;0.90;;;18.60;99.90;;;;;;5054970;28;20768;-71
2021/09/18 09:14:01;;;;;;;1.57;0.80;;;18.70;99.90;;;;;;5054642;28;20444;-70
2021/09/18 09:16:29;;;;;;;1.07;0.80;;;18.60;99.90;;;;;;5054758;28;20498;-71
2021/09/18 09:18:56;;;;;;;1.20;0.80;;;18.50;99.90;;;;;;5055415;28;20470;-71
2021/09/18 09:21:29;;;;;;;2.57;0.90;;;18.30;99.90;;;;;;5054794;28;20789;-70
2021/09/18 09:24:11;;;;;;;1.50;0.80;;;18.20;99.90;;;;;;5054637;28;20530;-71
2021/09/18 09:26:40;;;;;;;1.30;0.70;;;18.00;99.90;;;;;;5054773;28;20467;-70
2021/09/18 09:29:07;;;;;;;2.53;0.80;;;17.90;99.90;;;;;;5054412;28;20471;-70
2021/09/18 09:31:35;;;;;;;1.47;0.80;;;17.80;99.90;;;;;;5053882;28;20467;-71
2021/09/18 09:34:11;;;;;;;2.13;0.80;;;17.80;99.90;;;;;;5054741;28;20562;-71
2021/09/18 09:36:41;;;;;;;1.40;0.87;;;17.90;99.90;;;;;;5054156;28;20435;-70
2021/09/18 09:39:14;;;;;;;1.10;0.70;;;18.00;99.90;;;;;;5054467;28;20451;-71
2021/09/18 09:41:43;;;;;;;3.00;1.07;;;18.10;99.90;;;;;;5054229;28;20447;-70
2021/09/18 09:44:12;;;;;;;1.20;0.80;;;18.30;99.90;;;;;;5053930;28;20486;-70
2021/09/18 09:46:42;;;;;;;1.47;0.70;;;18.40;99.90;;;;;;5054232;28;20574;-70
2021/09/18 09:49:14;;;;;;;1.40;0.70;;;18.50;99.90;;;;;;5054447;28;20467;-70
2021/09/18 09:51:43;;;;;;;1.30;1.00;;;18.60;99.90;;;;;;5053905;28;20904;-71
2021/09/18 09:54:32;;;;;;;1.60;1.10;;;18.80;99.90;;;;;;5054047;28;20921;-71
2021/09/18 09:57:10;;;;;;;3.60;2.97;;;19.00;99.90;;;;;;5048906;28;20459;-71
2021/09/18 09:59:38;;;;;;;1.50;0.80;;;19.00;99.90;;;;;;5053861;28;20451;-71
2021/09/18 10:02:06;;;;;;;1.07;0.60;;;19.00;99.90;;;;;;5054616;28;20452;-71
2021/09/18 10:04:36;;;;;;;2.20;0.63;;;18.90;99.90;;;;;;5055032;28;20495;-70
2021/09/18 10:07:08;;;;;;;2.60;0.80;;;18.80;99.90;;;;;;5057963;28;20489;-71
2021/09/18 10:09:37;;;;;;;4.27;0.80;;;18.70;99.90;;;;;;5058033;28;20447;-71
2021/09/18 10:12:06;;;;;;;2.30;0.90;;;18.70;99.90;;;;;;5057696;28;20939;-71
2021/09/18 10:14:34;;;;;;;1.13;0.70;;;18.80;99.90;;;;;;5058104;28;20481;-70
2021/09/18 10:17:01;;;;;;;1.00;0.70;;;18.80;99.90;;;;;;5057820;28;20440;-71
2021/09/18 10:19:55;;;;;;;1.73;1.10;;;18.90;99.90;;;;;;5057614;28;20451;-71
2021/09/18 10:25:18;;;;;;;1.50;0.90;;;19.20;99.90;;;;;;5057930;28;20496;-71
2021/09/18 10:28:00;;;;;;;1.10;0.70;;;19.30;99.90;;;;;;5057950;28;20806;-71
2021/09/18 10:30:31;;;;;;;2.40;0.70;;;19.40;99.90;;;;;;5057532;28;20469;-71
2021/09/18 10:33:01;;;;;;;1.20;1.00;;;19.40;99.90;;;;;;5057810;28;20463;-71
2021/09/18 10:35:30;;;;;;;1.17;0.70;;;19.40;99.90;;;;;;5057479;28;20923;-71
2021/09/18 10:37:58;;;;;;;1.10;0.60;;;19.40;99.90;;;;;;5057292;28;20459;-71
2021/09/18 10:40:26;;;;;;;1.03;0.60;;;19.30;99.90;;;;;;5057752;28;20462;-71
2021/09/18 10:42:52;;;;;;;1.00;0.60;;;19.40;99.90;;;;;;5057378;28;20470;-71
2021/09/18 10:45:38;;;;;;;1.20;0.60;;;19.50;99.90;;;;;;5057437;28;20478;-72
2021/09/18 10:48:05;;;;;;;1.37;0.60;;;19.60;99.90;;;;;;5057406;28;20464;-71
2021/09/18 10:50:39;;;;;;;1.20;0.70;;;19.70;99.90;;;;;;5057458;28;20910;-71
2021/09/18 10:53:09;;;;;;;1.10;0.60;;;19.70;99.90;;;;;;5057170;28;20846;-71
2021/09/18 10:55:58;;;;;;;1.77;0.60;;;19.60;99.90;;;;;;5057314;28;20441;-70
2021/09/18 10:58:26;;;;;;;2.13;0.80;;;19.30;99.90;;;;;;5057483;28;20453;-72
2021/09/18 11:00:58;;;;;;;1.07;0.60;;;19.10;99.90;;;;;;5056790;28;20466;-71
2021/09/18 11:03:42;;;;;;;1.00;0.60;;;18.90;99.90;;;;;;5057466;28;20442;-71
2021/09/18 11:06:30;;;;;;;1.00;0.60;;;18.60;99.90;;;;;;5057537;28;20825;-72
2021/09/18 11:08:56;;;;;;;1.13;0.70;;;18.50;99.90;;;;;;5056212;28;20487;-71
2021/09/18 11:11:27;;;;;;;1.57;0.60;;;18.40;99.90;;;;;;5056762;28;20924;-71
2021/09/18 11:13:57;;;;;;;1.67;0.60;;;18.40;99.90;;;;;;5057274;28;20447;-72
2021/09/18 11:16:28;;;;;;;1.00;0.70;;;18.40;99.90;;;;;;5055378;28;20479;-71
2021/09/18 11:19:17;;;;;;;1.60;0.90;;;18.40;99.90;;;;;;5056832;28;20436;-71
2021/09/18 11:21:46;;;;;;;1.00;0.70;;;18.60;99.90;;;;;;5056919;28;20749;-71
2021/09/18 11:24:25;;;;;;;4.43;1.00;;;18.50;99.90;;;;;;5056843;28;20540;-72
2021/09/18 11:26:54;;;;;;;1.47;1.37;;;18.30;99.90;;;;;;5056916;28;20840;-72
2021/09/18 11:29:35;;;;;;;1.60;1.20;;;18.20;99.90;;;;;;5057330;28;20455;-71
2021/09/18 11:32:13;;;;;;;1.33;1.10;;;18.10;99.90;;;;;;5057286;28;20440;-72
2021/09/18 11:34:46;;;;;;;5.00;0.90;;;17.80;99.90;;;;;;5057396;28;20458;-71
2021/09/18 11:37:20;;;;;;;2.20;1.10;;;17.70;99.90;;;;;;5056802;28;20952;-71
2021/09/18 11:39:51;;;;;;;1.30;1.10;;;17.50;99.90;;;;;;5057199;28;20463;-71
2021/09/18 11:42:24;;;;;;;1.40;1.20;;;17.40;99.90;;;;;;5056749;28;20447;-73
2021/09/18 11:44:52;;;;;;;2.47;1.43;;;17.30;99.90;;;;;;5056645;28;20465;-70
2021/09/18 11:47:31;;;;;;;2.50;1.43;;;17.20;99.90;;;;;;5056067;28;20483;-71
2021/09/18 11:49:58;;;;;;;1.60;1.40;;;17.20;99.90;;;;;;5056968;28;20444;-72
2021/09/18 11:52:40;;;;;;;1.40;1.17;;;17.10;99.90;;;;;;5056748;28;20550;-72
2021/09/18 11:55:24;;;;;;;2.67;1.20;;;17.20;99.90;;;;;;5056560;28;20467;-71
2021/09/18 11:58:02;;;;;;;1.30;1.20;;;17.20;99.90;;;;;;5056562;28;20467;-71
2021/09/18 12:00:29;;;;;;;1.63;1.30;;;17.30;99.90;;;;;;5056095;28;20946;-72
2021/09/18 12:02:57;;;;;;;1.60;1.43;;;17.50;99.90;;;;;;5055915;28;20793;-71
2021/09/18 12:05:24;;;;;;;2.47;1.40;;;17.60;99.90;;;;;;5055758;28;20498;-71
2021/09/18 12:07:51;;;;;;;2.30;1.37;;;17.80;99.90;;;;;;5055754;28;20502;-71
2021/09/18 12:10:19;;;;;;;3.47;1.73;;;17.90;99.90;;;;;;5055942;28;20455;-71
2021/09/18 12:12:49;;;;;;;6.03;1.50;;;18.00;99.90;;;;;;5055349;28;20456;-71
2021/09/18 12:15:17;;;;;;;1.93;1.70;;;18.30;99.90;;;;;;5055532;28;20549;-70
2021/09/18 12:17:43;;;;;;;2.30;1.47;;;18.50;99.90;;;;;;5056092;28;20455;-71
2021/09/18 12:20:12;;;;;;;2.17;1.87;;;18.80;99.90;;;;;;5055709;28;20557;-71
2021/09/18 12:22:39;;;;;;;3.83;1.80;;;19.00;99.90;;;;;;5055384;28;20463;-71
2021/09/18 12:25:07;;;;;;;1.83;1.63;;;19.20;99.90;;;;;;5055577;28;20524;-71
2021/09/18 12:27:36;;;;;;;3.77;1.47;;;19.40;99.90;;;;;;5055385;28;20487;-70
2021/09/18 12:30:07;;;;;;;2.23;2.03;;;19.60;99.90;;;;;;5054983;28;20468;-71
2021/09/18 12:32:37;;;;;;;2.93;2.40;;;19.70;99.90;;;;;;5055818;28;20496;-70
2021/09/18 12:35:07;;;;;;;3.57;2.80;;;19.70;99.90;;;;;;5055394;28;20455;-71
2021/09/18 12:37:36;;;;;;;5.67;3.73;;;19.90;99.90;;;;;;5055227;28;20474;-71
2021/09/18 12:40:16;;;;;;;3.80;3.50;;;20.10;99.90;;;;;;5054961;28;20470;-71
2021/09/18 12:42:43;;;;;;;5.70;5.20;;;20.10;99.90;;;;;;5055129;28;20531;-71
2021/09/18 12:45:28;;;;;;;6.73;6.13;;;19.90;99.90;;;;;;5055392;28;20460;-71
2021/09/18 12:48:14;;;;;;;8.10;7.40;;;19.40;99.90;;;;;;5054621;28;20496;-71
2021/09/18 12:51:03;;;;;;;9.03;8.23;;;19.00;99.90;;;;;;5055229;28;20786;-71
2021/09/18 12:53:33;;;;;;;11.67;8.50;;;18.60;99.90;;;;;;5050502;28;20466;-71
2021/09/18 12:56:33;;;;;;;10.43;9.17;;;18.30;99.90;;;;;;5055138;28;20461;-71